sensor_id;sensor_type;location;lat;lon;timestamp;P1;durP1;ratioP1;P2;durP2;ratioP2
71836;SDS011;59686;51.716;7.016;2022-12-31T00:01:19;4.07;;;2.70;;
71836;SDS011;59686;51.716;7.016;2022-12-31T00:03:46;3.13;;;2.37;;
71836;SDS011;59686;51.716;7.016;2022-12-31T00:06:22;3.47;;;2.60;;
71836;SDS011;59686;51.716;7.016;2022-12-31T00:08:53;3.10;;;2.53;;
71836;SDS011;59686;51.716;7.016;2022-12-31T00:11:21;3.40;;;2.40;;
71836;SDS011;59686;51.716;7.016;2022-12-31T00:13:52;2.93;;;2.27;;
71836;SDS011;59686;51.716;7.016;2022-12-31T00:16:26;3.30;;;2.63;;
71836;SDS011;59686;51.716;7.016;2022-12-31T00:18:54;3.27;;;2.47;;
71836;SDS011;59686;51.716;7.016;2022-12-31T00:21:23;3.03;;;2.30;;
71836;SDS011;59686;51.716;7.016;2022-12-31T00:23:49;3.50;;;2.30;;
71836;SDS011;59686;51.716;7.016;2022-12-31T00:26:19;2.70;;;2.30;;
71836;SDS011;59686;51.716;7.016;2022-12-31T00:28:50;2.97;;;2.20;;
71836;SDS011;59686;51.716;7.016;2022-12-31T00:31:17;2.70;;;2.10;;
71836;SDS011;59686;51.716;7.016;2022-12-31T00:33:47;2.30;;;2.10;;
71836;SDS011;59686;51.716;7.016;2022-12-31T00:36:14;2.20;;;1.90;;
71836;SDS011;59686;51.716;7.016;2022-12-31T00:38:46;2.03;;;1.80;;
71836;SDS011;59686;51.716;7.016;2022-12-31T00:41:13;1.97;;;1.77;;
71836;SDS011;59686;51.716;7.016;2022-12-31T00:43:40;2.00;;;1.80;;
71836;SDS011;59686;51.716;7.016;2022-12-31T00:46:06;3.17;;;1.77;;
71836;SDS011;59686;51.716;7.016;2022-12-31T00:48:41;2.73;;;1.60;;
71836;SDS011;59686;51.716;7.016;2022-12-31T00:51:12;1.83;;;1.47;;
71836;SDS011;59686;51.716;7.016;2022-12-31T00:53:40;2.17;;;1.70;;
71836;SDS011;59686;51.716;7.016;2022-12-31T00:56:11;2.30;;;1.83;;
71836;SDS011;59686;51.716;7.016;2022-12-31T00:58:39;2.10;;;1.70;;
71836;SDS011;59686;51.716;7.016;2022-12-31T01:01:09;2.00;;;1.73;;
71836;SDS011;59686;51.716;7.016;2022-12-31T01:03:36;2.77;;;1.87;;
71836;SDS011;59686;51.716;7.016;2022-12-31T01:06:02;2.10;;;1.70;;
71836;SDS011;59686;51.716;7.016;2022-12-31T01:08:28;2.97;;;2.13;;
71836;SDS011;59686;51.716;7.016;2022-12-31T01:10:54;2.53;;;2.30;;
71836;SDS011;59686;51.716;7.016;2022-12-31T01:13:38;3.37;;;2.13;;
71836;SDS011;59686;51.716;7.016;2022-12-31T01:16:08;2.50;;;2.17;;
71836;SDS011;59686;51.716;7.016;2022-12-31T01:18:34;2.80;;;2.50;;
71836;SDS011;59686;51.716;7.016;2022-12-31T01:21:01;4.37;;;2.43;;
71836;SDS011;59686;51.716;7.016;2022-12-31T01:23:28;2.90;;;2.60;;
71836;SDS011;59686;51.716;7.016;2022-12-31T01:25:55;3.00;;;2.23;;
71836;SDS011;59686;51.716;7.016;2022-12-31T01:28:20;3.23;;;2.27;;
71836;SDS011;59686;51.716;7.016;2022-12-31T01:30:46;2.83;;;2.20;;
71836;SDS011;59686;51.716;7.016;2022-12-31T01:33:12;3.50;;;2.10;;
71836;SDS011;59686;51.716;7.016;2022-12-31T01:35:37;2.30;;;2.07;;
71836;SDS011;59686;51.716;7.016;2022-12-31T01:38:03;2.63;;;1.97;;
71836;SDS011;59686;51.716;7.016;2022-12-31T01:40:28;2.60;;;2.07;;
71836;SDS011;59686;51.716;7.016;2022-12-31T01:42:55;2.47;;;1.90;;
71836;SDS011;59686;51.716;7.016;2022-12-31T01:45:21;2.10;;;1.90;;
71836;SDS011;59686;51.716;7.016;2022-12-31T01:47:51;2.03;;;1.80;;
71836;SDS011;59686;51.716;7.016;2022-12-31T01:50:26;1.97;;;1.70;;
71836;SDS011;59686;51.716;7.016;2022-12-31T01:52:58;2.53;;;1.80;;
71836;SDS011;59686;51.716;7.016;2022-12-31T01:55:35;2.47;;;1.97;;
71836;SDS011;59686;51.716;7.016;2022-12-31T01:58:08;2.17;;;1.67;;
71836;SDS011;59686;51.716;7.016;2022-12-31T02:00:36;1.90;;;1.50;;
71836;SDS011;59686;51.716;7.016;2022-12-31T02:03:02;2.50;;;1.83;;
71836;SDS011;59686;51.716;7.016;2022-12-31T02:05:33;2.87;;;1.60;;
71836;SDS011;59686;51.716;7.016;2022-12-31T02:08:08;2.23;;;1.50;;
71836;SDS011;59686;51.716;7.016;2022-12-31T02:10:34;2.90;;;1.60;;
71836;SDS011;59686;51.716;7.016;2022-12-31T02:13:00;2.27;;;1.57;;
71836;SDS011;59686;51.716;7.016;2022-12-31T02:15:33;2.57;;;1.73;;
71836;SDS011;59686;51.716;7.016;2022-12-31T02:26:22;2.33;;;1.40;;
71836;SDS011;59686;51.716;7.016;2022-12-31T02:29:01;2.30;;;1.37;;
71836;SDS011;59686;51.716;7.016;2022-12-31T02:31:38;2.43;;;1.43;;
71836;SDS011;59686;51.716;7.016;2022-12-31T02:34:12;2.10;;;1.30;;
71836;SDS011;59686;51.716;7.016;2022-12-31T02:36:44;1.50;;;1.33;;
71836;SDS011;59686;51.716;7.016;2022-12-31T02:39:11;1.50;;;1.20;;
71836;SDS011;59686;51.716;7.016;2022-12-31T02:41:38;1.53;;;1.20;;
71836;SDS011;59686;51.716;7.016;2022-12-31T02:47:02;1.37;;;1.27;;
71836;SDS011;59686;51.716;7.016;2022-12-31T02:52:21;1.07;;;0.90;;
71836;SDS011;59686;51.716;7.016;2022-12-31T02:55:10;1.10;;;1.00;;
71836;SDS011;59686;51.716;7.016;2022-12-31T02:57:54;1.00;;;0.90;;
71836;SDS011;59686;51.716;7.016;2022-12-31T03:00:36;2.00;;;1.07;;
71836;SDS011;59686;51.716;7.016;2022-12-31T03:03:25;1.83;;;1.33;;
71836;SDS011;59686;51.716;7.016;2022-12-31T03:05:51;1.87;;;1.10;;
71836;SDS011;59686;51.716;7.016;2022-12-31T03:08:22;2.83;;;1.60;;
71836;SDS011;59686;51.716;7.016;2022-12-31T03:10:49;1.90;;;1.20;;
71836;SDS011;59686;51.716;7.016;2022-12-31T03:13:22;1.50;;;1.20;;
71836;SDS011;59686;51.716;7.016;2022-12-31T03:15:48;2.47;;;0.97;;
71836;SDS011;59686;51.716;7.016;2022-12-31T03:18:15;2.40;;;1.13;;
71836;SDS011;59686;51.716;7.016;2022-12-31T03:20:43;1.40;;;1.20;;
71836;SDS011;59686;51.716;7.016;2022-12-31T03:23:30;1.30;;;0.80;;
71836;SDS011;59686;51.716;7.016;2022-12-31T03:26:02;1.30;;;0.87;;
71836;SDS011;59686;51.716;7.016;2022-12-31T03:28:34;1.50;;;0.90;;
71836;SDS011;59686;51.716;7.016;2022-12-31T03:31:01;1.47;;;0.60;;
71836;SDS011;59686;51.716;7.016;2022-12-31T03:33:31;1.77;;;0.60;;
71836;SDS011;59686;51.716;7.016;2022-12-31T03:36:01;0.80;;;0.60;;
71836;SDS011;59686;51.716;7.016;2022-12-31T03:38:28;1.00;;;0.80;;
71836;SDS011;59686;51.716;7.016;2022-12-31T03:40:54;0.90;;;0.70;;
71836;SDS011;59686;51.716;7.016;2022-12-31T03:43:20;1.07;;;0.57;;
71836;SDS011;59686;51.716;7.016;2022-12-31T03:45:47;0.50;;;0.50;;
71836;SDS011;59686;51.716;7.016;2022-12-31T03:48:17;0.67;;;0.50;;
71836;SDS011;59686;51.716;7.016;2022-12-31T03:50:43;1.00;;;0.50;;
71836;SDS011;59686;51.716;7.016;2022-12-31T03:53:10;0.53;;;0.53;;
71836;SDS011;59686;51.716;7.016;2022-12-31T03:55:36;0.67;;;0.57;;
71836;SDS011;59686;51.716;7.016;2022-12-31T03:58:02;0.40;;;0.40;;
71836;SDS011;59686;51.716;7.016;2022-12-31T04:00:27;1.10;;;0.50;;
71836;SDS011;59686;51.716;7.016;2022-12-31T04:03:03;0.70;;;0.47;;
71836;SDS011;59686;51.716;7.016;2022-12-31T04:05:29;0.90;;;0.50;;
71836;SDS011;59686;51.716;7.016;2022-12-31T04:07:56;0.47;;;0.40;;
71836;SDS011;59686;51.716;7.016;2022-12-31T04:10:22;0.57;;;0.50;;
71836;SDS011;59686;51.716;7.016;2022-12-31T04:12:47;1.23;;;0.50;;
71836;SDS011;59686;51.716;7.016;2022-12-31T04:15:17;1.07;;;0.40;;
71836;SDS011;59686;51.716;7.016;2022-12-31T04:17:44;0.50;;;0.40;;
71836;SDS011;59686;51.716;7.016;2022-12-31T04:20:13;0.93;;;0.43;;
71836;SDS011;59686;51.716;7.016;2022-12-31T04:22:40;1.10;;;0.70;;
71836;SDS011;59686;51.716;7.016;2022-12-31T04:25:06;0.93;;;0.60;;
71836;SDS011;59686;51.716;7.016;2022-12-31T04:27:36;0.50;;;0.50;;
71836;SDS011;59686;51.716;7.016;2022-12-31T04:30:03;0.97;;;0.50;;
71836;SDS011;59686;51.716;7.016;2022-12-31T04:32:29;1.10;;;0.57;;
71836;SDS011;59686;51.716;7.016;2022-12-31T04:34:54;1.43;;;0.57;;
71836;SDS011;59686;51.716;7.016;2022-12-31T04:37:20;0.57;;;0.57;;
71836;SDS011;59686;51.716;7.016;2022-12-31T04:39:45;0.60;;;0.60;;
71836;SDS011;59686;51.716;7.016;2022-12-31T04:42:11;1.13;;;0.57;;
71836;SDS011;59686;51.716;7.016;2022-12-31T04:44:37;0.80;;;0.60;;
71836;SDS011;59686;51.716;7.016;2022-12-31T04:47:02;0.93;;;0.60;;
71836;SDS011;59686;51.716;7.016;2022-12-31T04:49:28;0.40;;;0.40;;
71836;SDS011;59686;51.716;7.016;2022-12-31T04:51:57;0.50;;;0.50;;
71836;SDS011;59686;51.716;7.016;2022-12-31T04:54:22;1.20;;;0.60;;
71836;SDS011;59686;51.716;7.016;2022-12-31T04:56:48;0.53;;;0.53;;
71836;SDS011;59686;51.716;7.016;2022-12-31T04:59:14;1.63;;;0.60;;
71836;SDS011;59686;51.716;7.016;2022-12-31T05:01:39;0.50;;;0.50;;
71836;SDS011;59686;51.716;7.016;2022-12-31T05:04:05;0.83;;;0.50;;
71836;SDS011;59686;51.716;7.016;2022-12-31T05:06:31;2.60;;;0.63;;
71836;SDS011;59686;51.716;7.016;2022-12-31T05:08:57;1.57;;;0.87;;
71836;SDS011;59686;51.716;7.016;2022-12-31T05:11:23;1.40;;;1.00;;
71836;SDS011;59686;51.716;7.016;2022-12-31T05:13:48;2.50;;;1.20;;
71836;SDS011;59686;51.716;7.016;2022-12-31T05:16:14;2.30;;;1.20;;
71836;SDS011;59686;51.716;7.016;2022-12-31T05:18:40;3.07;;;1.50;;
71836;SDS011;59686;51.716;7.016;2022-12-31T05:21:06;2.40;;;1.30;;
71836;SDS011;59686;51.716;7.016;2022-12-31T05:23:32;1.87;;;1.20;;
71836;SDS011;59686;51.716;7.016;2022-12-31T05:25:58;2.27;;;1.17;;
71836;SDS011;59686;51.716;7.016;2022-12-31T05:28:23;1.80;;;1.20;;
71836;SDS011;59686;51.716;7.016;2022-12-31T05:30:49;2.00;;;1.10;;
71836;SDS011;59686;51.716;7.016;2022-12-31T05:33:15;2.83;;;1.40;;
71836;SDS011;59686;51.716;7.016;2022-12-31T05:35:47;1.90;;;1.30;;
71836;SDS011;59686;51.716;7.016;2022-12-31T05:38:13;3.27;;;1.30;;
71836;SDS011;59686;51.716;7.016;2022-12-31T05:40:38;2.73;;;1.10;;
71836;SDS011;59686;51.716;7.016;2022-12-31T05:43:04;3.13;;;1.10;;
71836;SDS011;59686;51.716;7.016;2022-12-31T05:45:30;2.10;;;1.10;;
71836;SDS011;59686;51.716;7.016;2022-12-31T05:47:56;2.43;;;1.00;;
71836;SDS011;59686;51.716;7.016;2022-12-31T05:50:21;3.43;;;1.20;;
71836;SDS011;59686;51.716;7.016;2022-12-31T05:52:47;2.17;;;1.20;;
71836;SDS011;59686;51.716;7.016;2022-12-31T05:55:13;1.27;;;1.00;;
71836;SDS011;59686;51.716;7.016;2022-12-31T05:57:41;1.33;;;1.07;;
71836;SDS011;59686;51.716;7.016;2022-12-31T06:00:07;3.80;;;1.17;;
71836;SDS011;59686;51.716;7.016;2022-12-31T06:02:34;3.80;;;1.10;;
71836;SDS011;59686;51.716;7.016;2022-12-31T06:05:00;2.73;;;0.90;;
71836;SDS011;59686;51.716;7.016;2022-12-31T06:07:26;1.77;;;1.00;;
71836;SDS011;59686;51.716;7.016;2022-12-31T06:12:30;2.50;;;0.97;;
71836;SDS011;59686;51.716;7.016;2022-12-31T06:14:55;1.70;;;1.00;;
71836;SDS011;59686;51.716;7.016;2022-12-31T06:17:21;3.57;;;1.00;;
71836;SDS011;59686;51.716;7.016;2022-12-31T06:19:47;2.30;;;0.80;;
71836;SDS011;59686;51.716;7.016;2022-12-31T06:22:12;1.07;;;0.63;;
71836;SDS011;59686;51.716;7.016;2022-12-31T06:24:44;2.50;;;0.80;;
71836;SDS011;59686;51.716;7.016;2022-12-31T06:27:10;1.63;;;0.77;;
71836;SDS011;59686;51.716;7.016;2022-12-31T06:29:36;1.93;;;0.80;;
71836;SDS011;59686;51.716;7.016;2022-12-31T06:32:02;2.03;;;0.80;;
71836;SDS011;59686;51.716;7.016;2022-12-31T06:34:28;2.60;;;0.83;;
71836;SDS011;59686;51.716;7.016;2022-12-31T06:36:53;0.90;;;0.60;;
71836;SDS011;59686;51.716;7.016;2022-12-31T06:39:19;1.80;;;0.80;;
71836;SDS011;59686;51.716;7.016;2022-12-31T06:41:44;1.27;;;0.70;;
71836;SDS011;59686;51.716;7.016;2022-12-31T06:44:10;1.50;;;0.80;;
71836;SDS011;59686;51.716;7.016;2022-12-31T06:46:36;0.83;;;0.50;;
71836;SDS011;59686;51.716;7.016;2022-12-31T06:49:01;1.13;;;0.67;;
71836;SDS011;59686;51.716;7.016;2022-12-31T06:51:27;2.47;;;0.83;;
71836;SDS011;59686;51.716;7.016;2022-12-31T06:56:22;1.43;;;0.60;;
71836;SDS011;59686;51.716;7.016;2022-12-31T06:58:50;1.87;;;0.70;;
71836;SDS011;59686;51.716;7.016;2022-12-31T07:07:06;3.00;;;0.87;;
71836;SDS011;59686;51.716;7.016;2022-12-31T07:12:27;1.27;;;0.70;;
71836;SDS011;59686;51.716;7.016;2022-12-31T07:15:18;2.63;;;0.80;;
71836;SDS011;59686;51.716;7.016;2022-12-31T07:21:01;2.20;;;1.03;;
71836;SDS011;59686;51.716;7.016;2022-12-31T07:23:27;1.37;;;1.00;;
71836;SDS011;59686;51.716;7.016;2022-12-31T07:25:54;3.37;;;1.10;;
71836;SDS011;59686;51.716;7.016;2022-12-31T07:28:46;2.97;;;1.07;;
71836;SDS011;59686;51.716;7.016;2022-12-31T07:31:48;3.27;;;1.27;;
71836;SDS011;59686;51.716;7.016;2022-12-31T07:37:06;4.50;;;1.20;;
71836;SDS011;59686;51.716;7.016;2022-12-31T07:40:13;2.07;;;1.00;;
71836;SDS011;59686;51.716;7.016;2022-12-31T07:43:07;2.53;;;1.43;;
71836;SDS011;59686;51.716;7.016;2022-12-31T07:46:05;2.47;;;1.20;;
71836;SDS011;59686;51.716;7.016;2022-12-31T07:48:41;1.87;;;1.20;;
71836;SDS011;59686;51.716;7.016;2022-12-31T07:51:08;3.37;;;1.30;;
71836;SDS011;59686;51.716;7.016;2022-12-31T07:53:35;2.93;;;1.03;;
71836;SDS011;59686;51.716;7.016;2022-12-31T07:56:01;4.27;;;1.20;;
71836;SDS011;59686;51.716;7.016;2022-12-31T08:01:28;2.03;;;1.20;;
71836;SDS011;59686;51.716;7.016;2022-12-31T08:07:07;2.70;;;1.17;;
71836;SDS011;59686;51.716;7.016;2022-12-31T08:12:34;3.10;;;1.27;;
71836;SDS011;59686;51.716;7.016;2022-12-31T08:15:02;2.53;;;1.20;;
71836;SDS011;59686;51.716;7.016;2022-12-31T08:17:36;5.30;;;1.37;;
71836;SDS011;59686;51.716;7.016;2022-12-31T08:28:39;2.10;;;1.20;;
71836;SDS011;59686;51.716;7.016;2022-12-31T08:33:50;4.57;;;1.80;;
71836;SDS011;59686;51.716;7.016;2022-12-31T08:39:25;3.73;;;1.33;;
71836;SDS011;59686;51.716;7.016;2022-12-31T08:41:53;4.13;;;1.50;;
71836;SDS011;59686;51.716;7.016;2022-12-31T08:46:55;3.33;;;1.30;;
71836;SDS011;59686;51.716;7.016;2022-12-31T08:49:48;1.40;;;1.00;;
71836;SDS011;59686;51.716;7.016;2022-12-31T08:52:14;1.80;;;1.23;;
71836;SDS011;59686;51.716;7.016;2022-12-31T08:54:45;5.00;;;1.27;;
71836;SDS011;59686;51.716;7.016;2022-12-31T09:10:58;1.53;;;1.27;;
71836;SDS011;59686;51.716;7.016;2022-12-31T09:13:52;3.53;;;1.20;;
71836;SDS011;59686;51.716;7.016;2022-12-31T09:16:57;4.20;;;1.10;;
71836;SDS011;59686;51.716;7.016;2022-12-31T09:19:51;3.87;;;1.50;;
71836;SDS011;59686;51.716;7.016;2022-12-31T09:22:17;2.73;;;1.40;;
71836;SDS011;59686;51.716;7.016;2022-12-31T09:24:43;2.42;;;1.35;;
71836;SDS011;59686;51.716;7.016;2022-12-31T09:35:36;3.38;;;1.23;;
71836;SDS011;59686;51.716;7.016;2022-12-31T09:40:49;2.95;;;1.25;;
71836;SDS011;59686;51.716;7.016;2022-12-31T09:46:54;2.75;;;1.30;;
71836;SDS011;59686;51.716;7.016;2022-12-31T09:58:25;1.60;;;1.17;;
71836;SDS011;59686;51.716;7.016;2022-12-31T10:04:24;3.22;;;1.20;;
71836;SDS011;59686;51.716;7.016;2022-12-31T10:12:54;2.23;;;1.00;;
71836;SDS011;59686;51.716;7.016;2022-12-31T10:18:10;3.78;;;1.05;;
71836;SDS011;59686;51.716;7.016;2022-12-31T10:20:45;2.92;;;1.15;;
71836;SDS011;59686;51.716;7.016;2022-12-31T10:23:33;2.85;;;1.42;;
71836;SDS011;59686;51.716;7.016;2022-12-31T10:28:54;3.60;;;1.30;;
71836;SDS011;59686;51.716;7.016;2022-12-31T10:31:49;4.60;;;1.25;;
71836;SDS011;59686;51.716;7.016;2022-12-31T10:37:22;1.40;;;1.00;;
71836;SDS011;59686;51.716;7.016;2022-12-31T10:57:13;2.42;;;1.15;;
71836;SDS011;59686;51.716;7.016;2022-12-31T11:00:19;1.90;;;1.07;;
71836;SDS011;59686;51.716;7.016;2022-12-31T11:02:52;4.55;;;1.50;;
71836;SDS011;59686;51.716;7.016;2022-12-31T11:13:46;4.00;;;1.30;;
71836;SDS011;59686;51.716;7.016;2022-12-31T11:25:26;5.88;;;1.70;;
71836;SDS011;59686;51.716;7.016;2022-12-31T11:31:10;5.82;;;2.08;;
71836;SDS011;59686;51.716;7.016;2022-12-31T11:36:55;6.27;;;2.00;;
71836;SDS011;59686;51.716;7.016;2022-12-31T11:50:53;4.97;;;2.03;;
71836;SDS011;59686;51.716;7.016;2022-12-31T11:56:37;7.45;;;2.10;;
71836;SDS011;59686;51.716;7.016;2022-12-31T11:59:07;4.72;;;2.22;;
71836;SDS011;59686;51.716;7.016;2022-12-31T12:04:27;5.80;;;1.90;;
71836;SDS011;59686;51.716;7.016;2022-12-31T12:06:54;3.55;;;1.90;;
71836;SDS011;59686;51.716;7.016;2022-12-31T12:09:37;5.13;;;2.05;;
71836;SDS011;59686;51.716;7.016;2022-12-31T12:12:04;4.25;;;2.10;;
71836;SDS011;59686;51.716;7.016;2022-12-31T12:14:32;4.28;;;2.20;;
71836;SDS011;59686;51.716;7.016;2022-12-31T12:16:59;8.35;;;2.63;;
71836;SDS011;59686;51.716;7.016;2022-12-31T12:19:27;6.07;;;2.30;;
71836;SDS011;59686;51.716;7.016;2022-12-31T12:22:46;5.03;;;2.10;;
71836;SDS011;59686;51.716;7.016;2022-12-31T12:24:51;5.28;;;2.25;;
71836;SDS011;59686;51.716;7.016;2022-12-31T12:27:26;4.47;;;2.10;;
71836;SDS011;59686;51.716;7.016;2022-12-31T12:29:53;2.80;;;1.67;;
71836;SDS011;59686;51.716;7.016;2022-12-31T12:32:20;5.00;;;2.13;;
71836;SDS011;59686;51.716;7.016;2022-12-31T12:34:49;8.57;;;2.25;;
71836;SDS011;59686;51.716;7.016;2022-12-31T12:37:25;4.72;;;1.98;;
71836;SDS011;59686;51.716;7.016;2022-12-31T12:39:56;7.07;;;2.00;;
71836;SDS011;59686;51.716;7.016;2022-12-31T12:42:27;4.20;;;2.03;;
71836;SDS011;59686;51.716;7.016;2022-12-31T12:45:00;4.68;;;1.83;;
71836;SDS011;59686;51.716;7.016;2022-12-31T12:47:26;5.07;;;1.85;;
71836;SDS011;59686;51.716;7.016;2022-12-31T12:49:55;4.88;;;2.00;;
71836;SDS011;59686;51.716;7.016;2022-12-31T12:52:36;5.50;;;2.08;;
71836;SDS011;59686;51.716;7.016;2022-12-31T13:14:42;4.45;;;1.60;;
71836;SDS011;59686;51.716;7.016;2022-12-31T13:28:23;2.30;;;1.65;;
71836;SDS011;59686;51.716;7.016;2022-12-31T13:30:57;3.38;;;1.85;;
71836;SDS011;59686;51.716;7.016;2022-12-31T13:33:32;2.30;;;1.35;;
71836;SDS011;59686;51.716;7.016;2022-12-31T13:36:06;4.57;;;1.88;;
71836;SDS011;59686;51.716;7.016;2022-12-31T13:38:50;6.72;;;1.70;;
71836;SDS011;59686;51.716;7.016;2022-12-31T13:49:28;4.63;;;1.70;;
71836;SDS011;59686;51.716;7.016;2022-12-31T13:52:17;3.97;;;1.50;;
71836;SDS011;59686;51.716;7.016;2022-12-31T13:55:08;3.80;;;1.58;;
71836;SDS011;59686;51.716;7.016;2022-12-31T14:00:52;4.88;;;1.50;;
71836;SDS011;59686;51.716;7.016;2022-12-31T14:09:04;4.68;;;1.65;;
71836;SDS011;59686;51.716;7.016;2022-12-31T14:14:34;4.07;;;2.00;;
71836;SDS011;59686;51.716;7.016;2022-12-31T14:26:15;3.13;;;1.70;;
71836;SDS011;59686;51.716;7.016;2022-12-31T14:40:13;4.75;;;1.70;;
71836;SDS011;59686;51.716;7.016;2022-12-31T14:45:25;4.72;;;1.70;;
71836;SDS011;59686;51.716;7.016;2022-12-31T14:50:50;3.83;;;1.70;;
71836;SDS011;59686;51.716;7.016;2022-12-31T14:53:20;4.03;;;1.92;;
71836;SDS011;59686;51.716;7.016;2022-12-31T14:56:02;4.80;;;1.60;;
71836;SDS011;59686;51.716;7.016;2022-12-31T14:58:40;3.20;;;1.70;;
71836;SDS011;59686;51.716;7.016;2022-12-31T15:03:41;3.35;;;1.55;;
71836;SDS011;59686;51.716;7.016;2022-12-31T15:08:46;5.75;;;2.05;;
71836;SDS011;59686;51.716;7.016;2022-12-31T15:27:47;5.85;;;1.98;;
71836;SDS011;59686;51.716;7.016;2022-12-31T15:33:15;4.25;;;2.10;;
71836;SDS011;59686;51.716;7.016;2022-12-31T15:35:53;4.95;;;1.98;;
71836;SDS011;59686;51.716;7.016;2022-12-31T15:41:23;5.53;;;1.80;;
71836;SDS011;59686;51.716;7.016;2022-12-31T15:44:05;6.03;;;2.25;;
71836;SDS011;59686;51.716;7.016;2022-12-31T15:46:35;6.07;;;2.30;;
71836;SDS011;59686;51.716;7.016;2022-12-31T15:49:05;6.47;;;2.50;;
71836;SDS011;59686;51.716;7.016;2022-12-31T15:54:49;3.47;;;1.80;;
71836;SDS011;59686;51.716;7.016;2022-12-31T15:57:23;4.47;;;2.20;;
71836;SDS011;59686;51.716;7.016;2022-12-31T15:59:59;4.93;;;2.33;;
71836;SDS011;59686;51.716;7.016;2022-12-31T16:02:30;6.32;;;2.00;;
71836;SDS011;59686;51.716;7.016;2022-12-31T16:05:04;6.22;;;2.28;;
71836;SDS011;59686;51.716;7.016;2022-12-31T16:07:54;5.50;;;1.92;;
71836;SDS011;59686;51.716;7.016;2022-12-31T16:10:29;4.68;;;2.28;;
71836;SDS011;59686;51.716;7.016;2022-12-31T16:12:56;6.30;;;2.42;;
71836;SDS011;59686;51.716;7.016;2022-12-31T16:15:25;6.10;;;2.38;;
71836;SDS011;59686;51.716;7.016;2022-12-31T16:18:00;4.95;;;2.28;;
71836;SDS011;59686;51.716;7.016;2022-12-31T16:20:28;4.80;;;2.30;;
71836;SDS011;59686;51.716;7.016;2022-12-31T16:22:55;5.78;;;2.35;;
71836;SDS011;59686;51.716;7.016;2022-12-31T16:25:22;4.22;;;2.17;;
71836;SDS011;59686;51.716;7.016;2022-12-31T16:27:49;4.65;;;2.30;;
71836;SDS011;59686;51.716;7.016;2022-12-31T16:32:46;3.42;;;2.00;;
71836;SDS011;59686;51.716;7.016;2022-12-31T16:35:21;4.18;;;2.20;;
71836;SDS011;59686;51.716;7.016;2022-12-31T16:40:40;5.57;;;2.35;;
71836;SDS011;59686;51.716;7.016;2022-12-31T16:46:15;3.55;;;2.10;;
71836;SDS011;59686;51.716;7.016;2022-12-31T16:49:04;3.78;;;2.13;;
71836;SDS011;59686;51.716;7.016;2022-12-31T16:51:39;5.90;;;2.17;;
71836;SDS011;59686;51.716;7.016;2022-12-31T16:54:17;5.32;;;2.53;;
71836;SDS011;59686;51.716;7.016;2022-12-31T16:56:45;4.20;;;2.13;;
71836;SDS011;59686;51.716;7.016;2022-12-31T16:59:23;5.47;;;2.45;;
71836;SDS011;59686;51.716;7.016;2022-12-31T17:01:54;3.92;;;1.90;;
71836;SDS011;59686;51.716;7.016;2022-12-31T17:04:21;6.10;;;2.40;;
71836;SDS011;59686;51.716;7.016;2022-12-31T17:06:48;3.13;;;2.08;;
71836;SDS011;59686;51.716;7.016;2022-12-31T17:09:15;5.10;;;2.35;;
71836;SDS011;59686;51.716;7.016;2022-12-31T17:11:50;4.13;;;2.00;;
71836;SDS011;59686;51.716;7.016;2022-12-31T17:14:21;4.50;;;1.85;;
71836;SDS011;59686;51.716;7.016;2022-12-31T17:16:59;3.33;;;1.75;;
71836;SDS011;59686;51.716;7.016;2022-12-31T17:22:34;6.22;;;2.40;;
71836;SDS011;59686;51.716;7.016;2022-12-31T17:32:51;3.92;;;2.40;;
71836;SDS011;59686;51.716;7.016;2022-12-31T17:35:43;6.05;;;2.40;;
71836;SDS011;59686;51.716;7.016;2022-12-31T17:40:51;5.82;;;2.55;;
71836;SDS011;59686;51.716;7.016;2022-12-31T17:43:19;4.65;;;2.10;;
71836;SDS011;59686;51.716;7.016;2022-12-31T17:45:49;3.65;;;2.30;;
71836;SDS011;59686;51.716;7.016;2022-12-31T17:48:16;6.03;;;2.50;;
71836;SDS011;59686;51.716;7.016;2022-12-31T17:50:47;5.78;;;2.40;;
71836;SDS011;59686;51.716;7.016;2022-12-31T17:53:20;4.53;;;2.50;;
71836;SDS011;59686;51.716;7.016;2022-12-31T17:55:47;4.30;;;2.33;;
71836;SDS011;59686;51.716;7.016;2022-12-31T18:00:56;4.20;;;2.00;;
71836;SDS011;59686;51.716;7.016;2022-12-31T18:03:22;3.85;;;2.20;;
71836;SDS011;59686;51.716;7.016;2022-12-31T18:05:54;2.35;;;2.05;;
71836;SDS011;59686;51.716;7.016;2022-12-31T18:08:20;4.88;;;2.20;;
71836;SDS011;59686;51.716;7.016;2022-12-31T18:10:45;4.30;;;2.40;;
71836;SDS011;59686;51.716;7.016;2022-12-31T18:13:12;3.25;;;2.28;;
71836;SDS011;59686;51.716;7.016;2022-12-31T18:15:46;7.05;;;2.60;;
71836;SDS011;59686;51.716;7.016;2022-12-31T18:18:15;4.32;;;2.40;;
71836;SDS011;59686;51.716;7.016;2022-12-31T18:20:45;4.65;;;2.25;;
71836;SDS011;59686;51.716;7.016;2022-12-31T18:26:01;3.70;;;2.05;;
71836;SDS011;59686;51.716;7.016;2022-12-31T18:28:27;4.40;;;2.40;;
71836;SDS011;59686;51.716;7.016;2022-12-31T18:30:53;3.55;;;2.28;;
71836;SDS011;59686;51.716;7.016;2022-12-31T18:33:18;4.65;;;2.17;;
71836;SDS011;59686;51.716;7.016;2022-12-31T18:35:54;3.17;;;2.30;;
71836;SDS011;59686;51.716;7.016;2022-12-31T18:38:20;3.10;;;2.35;;
71836;SDS011;59686;51.716;7.016;2022-12-31T18:40:51;3.83;;;2.30;;
71836;SDS011;59686;51.716;7.016;2022-12-31T18:43:19;5.25;;;2.70;;
71836;SDS011;59686;51.716;7.016;2022-12-31T18:45:45;5.40;;;2.53;;
71836;SDS011;59686;51.716;7.016;2022-12-31T18:48:12;6.90;;;2.67;;
71836;SDS011;59686;51.716;7.016;2022-12-31T18:50:39;7.95;;;3.00;;
71836;SDS011;59686;51.716;7.016;2022-12-31T18:53:05;9.15;;;2.55;;
71836;SDS011;59686;51.716;7.016;2022-12-31T18:55:35;3.83;;;2.28;;
71836;SDS011;59686;51.716;7.016;2022-12-31T18:58:11;4.90;;;2.40;;
71836;SDS011;59686;51.716;7.016;2022-12-31T19:00:41;4.40;;;2.33;;
71836;SDS011;59686;51.716;7.016;2022-12-31T19:03:23;4.68;;;2.47;;
71836;SDS011;59686;51.716;7.016;2022-12-31T19:05:53;4.38;;;2.20;;
71836;SDS011;59686;51.716;7.016;2022-12-31T19:08:20;4.50;;;2.33;;
71836;SDS011;59686;51.716;7.016;2022-12-31T19:10:48;6.13;;;2.47;;
71836;SDS011;59686;51.716;7.016;2022-12-31T19:13:16;4.72;;;2.25;;
71836;SDS011;59686;51.716;7.016;2022-12-31T19:15:43;4.90;;;2.45;;
71836;SDS011;59686;51.716;7.016;2022-12-31T19:18:10;5.63;;;2.67;;
71836;SDS011;59686;51.716;7.016;2022-12-31T19:20:37;4.63;;;2.38;;
71836;SDS011;59686;51.716;7.016;2022-12-31T19:23:19;4.35;;;2.40;;
71836;SDS011;59686;51.716;7.016;2022-12-31T19:25:46;7.05;;;2.35;;
71836;SDS011;59686;51.716;7.016;2022-12-31T19:30:41;4.38;;;2.22;;
71836;SDS011;59686;51.716;7.016;2022-12-31T19:33:07;8.55;;;2.50;;
71836;SDS011;59686;51.716;7.016;2022-12-31T19:35:33;4.68;;;2.83;;
71836;SDS011;59686;51.716;7.016;2022-12-31T19:37:59;5.25;;;2.72;;
71836;SDS011;59686;51.716;7.016;2022-12-31T19:40:28;5.68;;;2.42;;
71836;SDS011;59686;51.716;7.016;2022-12-31T19:42:55;4.13;;;2.35;;
71836;SDS011;59686;51.716;7.016;2022-12-31T19:45:25;5.57;;;2.92;;
71836;SDS011;59686;51.716;7.016;2022-12-31T19:47:52;5.50;;;2.80;;
71836;SDS011;59686;51.716;7.016;2022-12-31T19:50:20;6.15;;;3.00;;
71836;SDS011;59686;51.716;7.016;2022-12-31T19:52:49;6.65;;;2.78;;
71836;SDS011;59686;51.716;7.016;2022-12-31T19:55:17;6.80;;;2.67;;
71836;SDS011;59686;51.716;7.016;2022-12-31T19:57:44;6.53;;;2.75;;
71836;SDS011;59686;51.716;7.016;2022-12-31T20:00:18;3.45;;;2.45;;
71836;SDS011;59686;51.716;7.016;2022-12-31T20:02:45;4.90;;;2.92;;
71836;SDS011;59686;51.716;7.016;2022-12-31T20:05:12;5.32;;;3.13;;
71836;SDS011;59686;51.716;7.016;2022-12-31T20:07:40;6.70;;;2.70;;
71836;SDS011;59686;51.716;7.016;2022-12-31T20:10:06;5.60;;;2.55;;
71836;SDS011;59686;51.716;7.016;2022-12-31T20:12:32;6.15;;;2.78;;
71836;SDS011;59686;51.716;7.016;2022-12-31T20:14:58;10.73;;;2.80;;
71836;SDS011;59686;51.716;7.016;2022-12-31T20:17:24;6.13;;;2.60;;
71836;SDS011;59686;51.716;7.016;2022-12-31T20:19:50;4.40;;;2.63;;